sensor_id;sensor_type;location;lat;lon;timestamp;P1;P2;P0
50827;PMS7003;36804;40.218;116.442;2023-05-10T00:00:35;30.00;13.25;6.00
50827;PMS7003;36804;40.218;116.442;2023-05-10T00:05:40;36.00;15.00;7.75
50827;PMS7003;36804;40.218;116.442;2023-05-10T00:10:45;30.50;15.75;8.00
50827;PMS7003;36804;40.218;116.442;2023-05-10T00:15:50;35.75;13.00;7.75
50827;PMS7003;36804;40.218;116.442;2023-05-10T00:20:55;34.25;17.00;8.50
50827;PMS7003;36804;40.218;116.442;2023-05-10T00:26:00;35.25;14.50;10.50
50827;PMS7003;36804;40.218;116.442;2023-05-10T00:31:04;36.25;15.50;8.00
50827;PMS7003;36804;40.218;116.442;2023-05-10T00:36:09;29.50;11.50;7.00
50827;PMS7003;36804;40.218;116.442;2023-05-10T00:41:15;32.75;13.75;8.00
50827;PMS7003;36804;40.218;116.442;2023-05-10T00:46:21;31.50;12.25;7.00
50827;PMS7003;36804;40.218;116.442;2023-05-10T00:51:26;30.00;11.25;6.00
50827;PMS7003;36804;40.218;116.442;2023-05-10T00:56:32;31.25;12.50;8.00
50827;PMS7003;36804;40.218;116.442;2023-05-10T01:01:36;30.00;14.00;8.00
50827;PMS7003;36804;40.218;116.442;2023-05-10T01:06:43;30.25;16.25;7.75
50827;PMS7003;36804;40.218;116.442;2023-05-10T01:11:48;33.50;17.00;8.75
50827;PMS7003;36804;40.218;116.442;2023-05-10T01:16:54;30.25;13.00;8.50
50827;PMS7003;36804;40.218;116.442;2023-05-10T01:22:02;33.00;13.25;5.75
50827;PMS7003;36804;40.218;116.442;2023-05-10T01:32:21;37.00;16.75;9.00
50827;PMS7003;36804;40.218;116.442;2023-05-10T01:37:31;33.50;15.75;8.00
50827;PMS7003;36804;40.218;116.442;2023-05-10T01:42:40;36.75;19.50;7.00
50827;PMS7003;36804;40.218;116.442;2023-05-10T01:47:48;31.25;16.25;7.75
50827;PMS7003;36804;40.218;116.442;2023-05-10T01:52:56;39.75;18.75;10.50
50827;PMS7003;36804;40.218;116.442;2023-05-10T01:58:03;37.50;16.75;8.25
50827;PMS7003;36804;40.218;116.442;2023-05-10T02:03:09;28.25;14.00;9.25
50827;PMS7003;36804;40.218;116.442;2023-05-10T02:08:15;38.00;17.50;10.50
50827;PMS7003;36804;40.218;116.442;2023-05-10T02:13:21;44.00;22.50;10.75
50827;PMS7003;36804;40.218;116.442;2023-05-10T02:18:28;39.50;19.00;10.75
50827;PMS7003;36804;40.218;116.442;2023-05-10T02:23:34;41.00;20.00;11.00
50827;PMS7003;36804;40.218;116.442;2023-05-10T02:28:40;41.75;23.50;12.25
50827;PMS7003;36804;40.218;116.442;2023-05-10T02:33:45;43.25;18.00;10.00
50827;PMS7003;36804;40.218;116.442;2023-05-10T02:38:52;40.00;18.00;11.00
50827;PMS7003;36804;40.218;116.442;2023-05-10T02:43:59;42.00;19.75;12.75
50827;PMS7003;36804;40.218;116.442;2023-05-10T02:49:07;47.00;23.50;11.25
50827;PMS7003;36804;40.218;116.442;2023-05-10T02:54:13;38.75;22.00;11.75
50827;PMS7003;36804;40.218;116.442;2023-05-10T02:59:19;37.75;21.00;9.75
50827;PMS7003;36804;40.218;116.442;2023-05-10T03:04:24;48.50;27.50;13.25
50827;PMS7003;36804;40.218;116.442;2023-05-10T03:09:31;39.50;21.00;11.75
50827;PMS7003;36804;40.218;116.442;2023-05-10T03:19:53;46.50;27.00;13.75
50827;PMS7003;36804;40.218;116.442;2023-05-10T03:25:00;46.75;23.00;13.25
50827;PMS7003;36804;40.218;116.442;2023-05-10T03:30:10;42.25;23.75;13.75
50827;PMS7003;36804;40.218;116.442;2023-05-10T03:35:16;41.00;23.00;13.00
50827;PMS7003;36804;40.218;116.442;2023-05-10T03:40:20;48.75;24.25;14.00
50827;PMS7003;36804;40.218;116.442;2023-05-10T03:45:26;42.25;26.00;14.50
50827;PMS7003;36804;40.218;116.442;2023-05-10T03:50:31;48.25;25.50;15.25
50827;PMS7003;36804;40.218;116.442;2023-05-10T03:55:35;47.50;28.75;17.00
50827;PMS7003;36804;40.218;116.442;2023-05-10T04:00:40;48.00;24.75;13.50
50827;PMS7003;36804;40.218;116.442;2023-05-10T04:05:48;47.75;26.25;15.00
50827;PMS7003;36804;40.218;116.442;2023-05-10T04:10:53;43.75;24.25;16.00
50827;PMS7003;36804;40.218;116.442;2023-05-10T04:15:57;42.50;22.00;12.25
50827;PMS7003;36804;40.218;116.442;2023-05-10T04:21:01;45.25;21.75;12.25
50827;PMS7003;36804;40.218;116.442;2023-05-10T04:26:06;38.75;21.50;12.50
50827;PMS7003;36804;40.218;116.442;2023-05-10T04:31:11;44.50;23.50;12.00
50827;PMS7003;36804;40.218;116.442;2023-05-10T04:36:16;41.75;20.00;11.00
50827;PMS7003;36804;40.218;116.442;2023-05-10T04:41:20;41.50;23.25;12.00
50827;PMS7003;36804;40.218;116.442;2023-05-10T04:46:25;43.00;18.75;10.50
50827;PMS7003;36804;40.218;116.442;2023-05-10T04:51:29;41.00;19.50;11.75
50827;PMS7003;36804;40.218;116.442;2023-05-10T04:56:34;38.00;19.75;10.75
50827;PMS7003;36804;40.218;116.442;2023-05-10T05:01:39;41.50;17.50;8.75
50827;PMS7003;36804;40.218;116.442;2023-05-10T05:06:44;42.25;19.50;10.00
50827;PMS7003;36804;40.218;116.442;2023-05-10T05:11:48;38.75;16.00;10.25
50827;PMS7003;36804;40.218;116.442;2023-05-10T05:16:53;32.00;16.00;9.00
50827;PMS7003;36804;40.218;116.442;2023-05-10T05:21:57;43.25;18.00;11.25
50827;PMS7003;36804;40.218;116.442;2023-05-10T05:27:02;44.75;16.75;9.75
50827;PMS7003;36804;40.218;116.442;2023-05-10T05:32:06;33.25;16.25;8.75
50827;PMS7003;36804;40.218;116.442;2023-05-10T05:37:15;30.75;16.50;10.75
50827;PMS7003;36804;40.218;116.442;2023-05-10T05:42:20;35.75;17.25;11.00
50827;PMS7003;36804;40.218;116.442;2023-05-10T05:47:24;33.50;13.25;10.00
50827;PMS7003;36804;40.218;116.442;2023-05-10T05:52:29;40.25;18.00;12.25
50827;PMS7003;36804;40.218;116.442;2023-05-10T05:57:34;37.25;16.25;10.00
50827;PMS7003;36804;40.218;116.442;2023-05-10T06:02:38;41.75;20.75;12.25
50827;PMS7003;36804;40.218;116.442;2023-05-10T06:07:44;39.25;20.50;11.00
50827;PMS7003;36804;40.218;116.442;2023-05-10T06:12:49;33.00;17.50;11.75
50827;PMS7003;36804;40.218;116.442;2023-05-10T06:17:54;39.50;19.25;11.00
50827;PMS7003;36804;40.218;116.442;2023-05-10T06:22:58;35.00;15.25;10.25
50827;PMS7003;36804;40.218;116.442;2023-05-10T06:28:03;39.75;19.75;12.00
50827;PMS7003;36804;40.218;116.442;2023-05-10T06:33:07;35.00;19.00;10.50
50827;PMS7003;36804;40.218;116.442;2023-05-10T06:38:13;38.75;17.75;9.75
50827;PMS7003;36804;40.218;116.442;2023-05-10T06:43:17;28.00;13.50;8.25
50827;PMS7003;36804;40.218;116.442;2023-05-10T06:48:21;33.50;15.50;9.75
50827;PMS7003;36804;40.218;116.442;2023-05-10T06:53:26;38.75;17.25;9.00
50827;PMS7003;36804;40.218;116.442;2023-05-10T06:58:31;33.75;15.00;9.25
50827;PMS7003;36804;40.218;116.442;2023-05-10T07:03:36;42.75;20.00;11.50
50827;PMS7003;36804;40.218;116.442;2023-05-10T07:08:40;36.50;19.50;10.25
50827;PMS7003;36804;40.218;116.442;2023-05-10T07:13:44;31.75;15.00;8.00
50827;PMS7003;36804;40.218;116.442;2023-05-10T07:18:50;40.25;18.00;10.75
50827;PMS7003;36804;40.218;116.442;2023-05-10T07:23:54;37.25;14.00;9.75
50827;PMS7003;36804;40.218;116.442;2023-05-10T07:28:58;37.25;16.75;10.25
50827;PMS7003;36804;40.218;116.442;2023-05-10T07:34:03;43.00;21.25;11.50
50827;PMS7003;36804;40.218;116.442;2023-05-10T07:39:08;41.00;15.25;10.00
50827;PMS7003;36804;40.218;116.442;2023-05-10T07:44:19;35.50;18.00;11.50
50827;PMS7003;36804;40.218;116.442;2023-05-10T07:49:25;42.75;19.25;12.50
50827;PMS7003;36804;40.218;116.442;2023-05-10T07:54:29;44.50;22.50;12.25
50827;PMS7003;36804;40.218;116.442;2023-05-10T07:59:34;45.75;28.50;17.00
50827;PMS7003;36804;40.218;116.442;2023-05-10T08:04:38;52.25;30.25;20.75
50827;PMS7003;36804;40.218;116.442;2023-05-10T08:09:43;47.50;29.50;17.75
50827;PMS7003;36804;40.218;116.442;2023-05-10T08:14:47;48.00;29.00;16.00
50827;PMS7003;36804;40.218;116.442;2023-05-10T08:19:52;47.50;25.75;16.25
50827;PMS7003;36804;40.218;116.442;2023-05-10T08:24:56;49.00;25.75;17.00
50827;PMS7003;36804;40.218;116.442;2023-05-10T08:30:00;46.75;28.25;18.25
50827;PMS7003;36804;40.218;116.442;2023-05-10T08:35:05;39.75;25.75;15.00
50827;PMS7003;36804;40.218;116.442;2023-05-10T08:40:09;42.50;23.75;16.50
50827;PMS7003;36804;40.218;116.442;2023-05-10T08:45:16;49.75;27.75;15.75
50827;PMS7003;36804;40.218;116.442;2023-05-10T08:50:21;46.75;27.25;17.00
50827;PMS7003;36804;40.218;116.442;2023-05-10T08:55:26;42.25;23.75;13.00
50827;PMS7003;36804;40.218;116.442;2023-05-10T09:00:32;48.50;25.50;15.25
50827;PMS7003;36804;40.218;116.442;2023-05-10T09:05:37;44.25;28.25;14.50
50827;PMS7003;36804;40.218;116.442;2023-05-10T09:10:43;42.50;22.50;15.00
50827;PMS7003;36804;40.218;116.442;2023-05-10T09:15:47;42.75;24.75;15.00
50827;PMS7003;36804;40.218;116.442;2023-05-10T09:20:52;44.25;28.00;17.00
50827;PMS7003;36804;40.218;116.442;2023-05-10T09:26:05;43.50;27.00;17.00
50827;PMS7003;36804;40.218;116.442;2023-05-10T09:31:10;46.50;25.75;16.50
50827;PMS7003;36804;40.218;116.442;2023-05-10T09:36:15;48.25;23.00;15.00
50827;PMS7003;36804;40.218;116.442;2023-05-10T09:41:22;49.00;28.50;16.75
50827;PMS7003;36804;40.218;116.442;2023-05-10T09:46:27;41.25;21.25;16.00
50827;PMS7003;36804;40.218;116.442;2023-05-10T09:51:31;41.75;22.00;15.75
50827;PMS7003;36804;40.218;116.442;2023-05-10T09:56:38;39.00;23.50;16.75
50827;PMS7003;36804;40.218;116.442;2023-05-10T10:01:49;44.25;20.75;11.00
50827;PMS7003;36804;40.218;116.442;2023-05-10T10:06:59;46.00;23.25;15.00
50827;PMS7003;36804;40.218;116.442;2023-05-10T10:12:04;45.50;23.50;16.00
50827;PMS7003;36804;40.218;116.442;2023-05-10T10:17:09;43.75;21.75;13.00
50827;PMS7003;36804;40.218;116.442;2023-05-10T10:22:14;41.25;21.00;13.75
50827;PMS7003;36804;40.218;116.442;2023-05-10T10:38:36;46.25;28.00;18.00
50827;PMS7003;36804;40.218;116.442;2023-05-10T10:43:41;47.50;25.50;17.00
50827;PMS7003;36804;40.218;116.442;2023-05-10T10:48:47;51.00;28.25;16.50
50827;PMS7003;36804;40.218;116.442;2023-05-10T10:53:52;49.50;28.50;17.00
50827;PMS7003;36804;40.218;116.442;2023-05-10T10:58:58;46.50;26.25;16.75
50827;PMS7003;36804;40.218;116.442;2023-05-10T11:09:09;51.75;24.50;15.50
50827;PMS7003;36804;40.218;116.442;2023-05-10T11:14:15;47.50;28.75;18.50
50827;PMS7003;36804;40.218;116.442;2023-05-10T11:19:24;43.25;23.75;15.25
50827;PMS7003;36804;40.218;116.442;2023-05-10T11:24:31;48.50;25.50;15.00
50827;PMS7003;36804;40.218;116.442;2023-05-10T11:29:37;43.25;21.25;15.75
50827;PMS7003;36804;40.218;116.442;2023-05-10T11:34:42;44.50;24.25;15.75
50827;PMS7003;36804;40.218;116.442;2023-05-10T11:39:54;46.25;25.75;16.00
50827;PMS7003;36804;40.218;116.442;2023-05-10T11:45:00;44.00;28.25;16.25
50827;PMS7003;36804;40.218;116.442;2023-05-10T11:50:05;44.75;23.00;15.00
50827;PMS7003;36804;40.218;116.442;2023-05-10T11:55:10;47.75;23.00;15.00
50827;PMS7003;36804;40.218;116.442;2023-05-10T12:00:16;48.75;26.00;18.50
50827;PMS7003;36804;40.218;116.442;2023-05-10T12:05:21;49.50;25.25;15.00
50827;PMS7003;36804;40.218;116.442;2023-05-10T12:10:26;47.50;25.00;14.50
50827;PMS7003;36804;40.218;116.442;2023-05-10T12:15:31;48.50;23.00;16.00
50827;PMS7003;36804;40.218;116.442;2023-05-10T12:20:36;49.00;23.25;14.50
50827;PMS7003;36804;40.218;116.442;2023-05-10T12:25:42;46.00;23.50;16.25
50827;PMS7003;36804;40.218;116.442;2023-05-10T12:30:47;47.50;23.00;14.50
50827;PMS7003;36804;40.218;116.442;2023-05-10T12:35:52;45.75;25.50;17.00
50827;PMS7003;36804;40.218;116.442;2023-05-10T12:41:01;48.25;26.75;15.25
50827;PMS7003;36804;40.218;116.442;2023-05-10T12:46:10;53.00;28.00;17.50
50827;PMS7003;36804;40.218;116.442;2023-05-10T12:51:16;46.50;23.75;15.50
50827;PMS7003;36804;40.218;116.442;2023-05-10T12:56:23;47.75;26.75;16.50
50827;PMS7003;36804;40.218;116.442;2023-05-10T13:01:29;47.50;26.75;17.50
50827;PMS7003;36804;40.218;116.442;2023-05-10T13:06:34;50.25;26.00;14.25
50827;PMS7003;36804;40.218;116.442;2023-05-10T13:11:39;48.75;24.50;14.75
50827;PMS7003;36804;40.218;116.442;2023-05-10T13:16:43;47.50;27.25;17.00
50827;PMS7003;36804;40.218;116.442;2023-05-10T13:21:48;42.25;23.25;14.00
50827;PMS7003;36804;40.218;116.442;2023-05-10T13:26:53;47.25;21.75;15.00
50827;PMS7003;36804;40.218;116.442;2023-05-10T13:31:59;51.75;29.00;16.75
50827;PMS7003;36804;40.218;116.442;2023-05-10T13:37:07;52.25;24.25;15.00
50827;PMS7003;36804;40.218;116.442;2023-05-10T13:42:12;50.00;23.00;15.50
50827;PMS7003;36804;40.218;116.442;2023-05-10T13:47:18;41.50;23.75;15.75
50827;PMS7003;36804;40.218;116.442;2023-05-10T13:52:23;49.25;26.25;17.75
50827;PMS7003;36804;40.218;116.442;2023-05-10T13:57:28;46.25;26.00;17.50
50827;PMS7003;36804;40.218;116.442;2023-05-10T14:02:34;43.25;22.00;14.75
50827;PMS7003;36804;40.218;116.442;2023-05-10T14:07:39;44.00;23.00;16.00
50827;PMS7003;36804;40.218;116.442;2023-05-10T14:12:44;48.00;23.00;14.75
50827;PMS7003;36804;40.218;116.442;2023-05-10T14:17:49;50.75;23.25;14.75
50827;PMS7003;36804;40.218;116.442;2023-05-10T14:22:53;46.50;25.00;16.75
50827;PMS7003;36804;40.218;116.442;2023-05-10T14:27:58;46.75;25.50;17.50
50827;PMS7003;36804;40.218;116.442;2023-05-10T14:33:03;46.00;27.75;17.75
50827;PMS7003;36804;40.218;116.442;2023-05-10T14:38:08;47.75;25.75;15.75
50827;PMS7003;36804;40.218;116.442;2023-05-10T14:43:19;49.50;28.25;15.50
50827;PMS7003;36804;40.218;116.442;2023-05-10T14:48:24;39.75;23.50;17.25
50827;PMS7003;36804;40.218;116.442;2023-05-10T14:53:29;40.50;23.00;16.00
50827;PMS7003;36804;40.218;116.442;2023-05-10T14:58:34;39.75;22.75;14.50
50827;PMS7003;36804;40.218;116.442;2023-05-10T15:03:39;46.50;25.25;14.00
50827;PMS7003;36804;40.218;116.442;2023-05-10T15:08:45;36.75;22.25;15.25
50827;PMS7003;36804;40.218;116.442;2023-05-10T15:13:50;43.50;20.50;14.00
50827;PMS7003;36804;40.218;116.442;2023-05-10T15:18:55;49.00;24.75;17.00
50827;PMS7003;36804;40.218;116.442;2023-05-10T15:24:00;40.00;24.25;15.00
50827;PMS7003;36804;40.218;116.442;2023-05-10T15:29:05;38.50;21.50;15.25
50827;PMS7003;36804;40.218;116.442;2023-05-10T15:34:10;46.00;22.50;16.75
50827;PMS7003;36804;40.218;116.442;2023-05-10T15:39:15;41.00;24.00;14.75
50827;PMS7003;36804;40.218;116.442;2023-05-10T15:44:20;39.75;21.00;13.50
50827;PMS7003;36804;40.218;116.442;2023-05-10T15:49:26;37.75;24.00;17.50
50827;PMS7003;36804;40.218;116.442;2023-05-10T15:54:31;40.50;20.50;13.50
50827;PMS7003;36804;40.218;116.442;2023-05-10T15:59:36;45.75;26.00;16.50
50827;PMS7003;36804;40.218;116.442;2023-05-10T16:04:41;42.50;24.75;17.50
50827;PMS7003;36804;40.218;116.442;2023-05-10T16:09:47;39.00;20.50;14.50
50827;PMS7003;36804;40.218;116.442;2023-05-10T16:14:52;44.50;22.50;14.00
50827;PMS7003;36804;40.218;116.442;2023-05-10T16:19:57;41.75;23.50;16.00
50827;PMS7003;36804;40.218;116.442;2023-05-10T16:25:03;42.25;22.75;15.25
50827;PMS7003;36804;40.218;116.442;2023-05-10T16:30:08;39.75;23.00;14.50
50827;PMS7003;36804;40.218;116.442;2023-05-10T16:35:13;34.00;19.50;14.00
50827;PMS7003;36804;40.218;116.442;2023-05-10T16:40:18;41.00;23.25;13.00
50827;PMS7003;36804;40.218;116.442;2023-05-10T16:45:23;46.50;26.75;17.50
50827;PMS7003;36804;40.218;116.442;2023-05-10T16:50:28;40.25;25.75;16.00
50827;PMS7003;36804;40.218;116.442;2023-05-10T16:55:33;43.50;25.25;14.50
50827;PMS7003;36804;40.218;116.442;2023-05-10T17:00:38;40.75;25.75;17.25
50827;PMS7003;36804;40.218;116.442;2023-05-10T17:05:43;50.00;28.50;14.75
50827;PMS7003;36804;40.218;116.442;2023-05-10T17:10:47;41.75;23.75;14.00
50827;PMS7003;36804;40.218;116.442;2023-05-10T17:15:52;43.00;27.50;16.50
50827;PMS7003;36804;40.218;116.442;2023-05-10T17:20:57;44.00;23.00;16.50
50827;PMS7003;36804;40.218;116.442;2023-05-10T17:26:03;48.25;26.50;15.75
50827;PMS7003;36804;40.218;116.442;2023-05-10T17:31:08;40.00;23.75;15.00
50827;PMS7003;36804;40.218;116.442;2023-05-10T17:36:13;48.00;25.25;16.00
50827;PMS7003;36804;40.218;116.442;2023-05-10T17:41:18;49.25;27.75;17.75
50827;PMS7003;36804;40.218;116.442;2023-05-10T17:46:22;47.00;24.75;14.75
50827;PMS7003;36804;40.218;116.442;2023-05-10T17:51:27;39.00;26.25;16.75
50827;PMS7003;36804;40.218;116.442;2023-05-10T17:56:33;44.75;23.25;16.00
50827;PMS7003;36804;40.218;116.442;2023-05-10T18:01:38;43.00;28.25;18.00
50827;PMS7003;36804;40.218;116.442;2023-05-10T18:06:42;49.00;28.25;18.75
50827;PMS7003;36804;40.218;116.442;2023-05-10T18:11:47;47.50;29.25;18.50
50827;PMS7003;36804;40.218;116.442;2023-05-10T18:16:52;44.50;28.50;17.75
50827;PMS7003;36804;40.218;116.442;2023-05-10T18:21:57;43.50;28.25;16.75
50827;PMS7003;36804;40.218;116.442;2023-05-10T18:27:02;44.00;25.25;16.00
50827;PMS7003;36804;40.218;116.442;2023-05-10T18:32:08;46.50;28.50;17.50
50827;PMS7003;36804;40.218;116.442;2023-05-10T18:37:13;44.75;22.75;14.00
50827;PMS7003;36804;40.218;116.442;2023-05-10T18:42:18;45.50;27.50;18.25
50827;PMS7003;36804;40.218;116.442;2023-05-10T18:47:23;43.75;26.00;19.00
50827;PMS7003;36804;40.218;116.442;2023-05-10T18:52:29;44.75;28.25;20.00
50827;PMS7003;36804;40.218;116.442;2023-05-10T18:57:34;43.50;26.25;15.75
50827;PMS7003;36804;40.218;116.442;2023-05-10T19:02:44;43.50;23.00;14.50
50827;PMS7003;36804;40.218;116.442;2023-05-10T19:07:50;44.25;26.25;19.00
50827;PMS7003;36804;40.218;116.442;2023-05-10T19:12:54;43.75;27.50;19.00
50827;PMS7003;36804;40.218;116.442;2023-05-10T19:18:00;48.00;29.00;18.75
50827;PMS7003;36804;40.218;116.442;2023-05-10T19:23:05;49.00;29.00;18.00
50827;PMS7003;36804;40.218;116.442;2023-05-10T19:28:12;46.50;26.50;17.25
50827;PMS7003;36804;40.218;116.442;2023-05-10T19:33:17;43.25;27.75;17.25
50827;PMS7003;36804;40.218;116.442;2023-05-10T19:38:22;43.75;26.25;18.75
50827;PMS7003;36804;40.218;116.442;2023-05-10T19:43:27;42.25;25.50;18.50
50827;PMS7003;36804;40.218;116.442;2023-05-10T19:48:36;48.00;26.25;18.00
50827;PMS7003;36804;40.218;116.442;2023-05-10T19:53:41;39.50;23.75;16.00
50827;PMS7003;36804;40.218;116.442;2023-05-10T19:58:47;41.00;24.50;15.75
50827;PMS7003;36804;40.218;116.442;2023-05-10T20:03:52;46.00;28.75;17.50
50827;PMS7003;36804;40.218;116.442;2023-05-10T20:08:57;43.00;28.25;18.50
50827;PMS7003;36804;40.218;116.442;2023-05-10T20:14:02;44.50;29.00;17.00
50827;PMS7003;36804;40.218;116.442;2023-05-10T20:19:07;47.00;29.75;20.00
50827;PMS7003;36804;40.218;116.442;2023-05-10T20:24:12;43.00;27.00;18.50
50827;PMS7003;36804;40.218;116.442;2023-05-10T20:29:17;46.00;27.25;18.75
50827;PMS7003;36804;40.218;116.442;2023-05-10T20:34:22;48.75;29.00;19.00
50827;PMS7003;36804;40.218;116.442;2023-05-10T20:39:26;43.75;26.25;18.50
50827;PMS7003;36804;40.218;116.442;2023-05-10T20:44:32;46.50;27.75;19.25
50827;PMS7003;36804;40.218;116.442;2023-05-10T20:49:37;47.25;30.75;18.50
50827;PMS7003;36804;40.218;116.442;2023-05-10T20:54:43;42.75;24.25;16.75
50827;PMS7003;36804;40.218;116.442;2023-05-10T20:59:48;45.00;29.25;20.00
50827;PMS7003;36804;40.218;116.442;2023-05-10T21:04:55;47.75;29.50;19.00
50827;PMS7003;36804;40.218;116.442;2023-05-10T21:10:00;41.75;25.25;16.00
50827;PMS7003;36804;40.218;116.442;2023-05-10T21:15:05;46.00;27.50;19.00
50827;PMS7003;36804;40.218;116.442;2023-05-10T21:20:10;46.25;25.00;19.00
50827;PMS7003;36804;40.218;116.442;2023-05-10T21:25:15;48.75;32.00;20.00
50827;PMS7003;36804;40.218;116.442;2023-05-10T21:30:21;48.00;29.00;19.00
50827;PMS7003;36804;40.218;116.442;2023-05-10T21:35:26;48.25;31.00;19.75
50827;PMS7003;36804;40.218;116.442;2023-05-10T21:40:31;49.50;31.75;21.00
50827;PMS7003;36804;40.218;116.442;2023-05-10T21:45:36;43.25;28.25;21.00
50827;PMS7003;36804;40.218;116.442;2023-05-10T21:50:42;50.75;31.50;20.75
50827;PMS7003;36804;40.218;116.442;2023-05-10T21:55:47;47.75;31.25;20.75
50827;PMS7003;36804;40.218;116.442;2023-05-10T22:00:52;48.00;32.00;20.50
50827;PMS7003;36804;40.218;116.442;2023-05-10T22:05:57;56.00;35.75;23.00
50827;PMS7003;36804;40.218;116.442;2023-05-10T22:11:01;48.25;32.50;21.00
50827;PMS7003;36804;40.218;116.442;2023-05-10T22:16:06;53.75;34.75;21.00
50827;PMS7003;36804;40.218;116.442;2023-05-10T22:21:11;54.50;32.00;22.00
50827;PMS7003;36804;40.218;116.442;2023-05-10T22:26:16;54.00;34.75;23.75
50827;PMS7003;36804;40.218;116.442;2023-05-10T22:31:21;54.25;36.50;23.00
50827;PMS7003;36804;40.218;116.442;2023-05-10T22:36:26;56.25;35.00;22.00
50827;PMS7003;36804;40.218;116.442;2023-05-10T22:41:32;55.75;37.25;22.75
50827;PMS7003;36804;40.218;116.442;2023-05-10T22:46:37;55.00;34.75;22.50
50827;PMS7003;36804;40.218;116.442;2023-05-10T22:51:42;51.50;36.00;23.75
50827;PMS7003;36804;40.218;116.442;2023-05-10T22:56:46;53.00;37.00;24.25
50827;PMS7003;36804;40.218;116.442;2023-05-10T23:01:51;54.25;37.00;23.50
50827;PMS7003;36804;40.218;116.442;2023-05-10T23:06:57;53.50;35.25;22.00
50827;PMS7003;36804;40.218;116.442;2023-05-10T23:12:03;61.00;34.25;23.00
50827;PMS7003;36804;40.218;116.442;2023-05-10T23:17:09;55.50;37.75;23.25
50827;PMS7003;36804;40.218;116.442;2023-05-10T23:22:14;55.25;35.25;25.00
50827;PMS7003;36804;40.218;116.442;2023-05-10T23:27:18;69.75;41.75;26.00
50827;PMS7003;36804;40.218;116.442;2023-05-10T23:32:23;72.75;46.00;28.00
50827;PMS7003;36804;40.218;116.442;2023-05-10T23:37:28;62.75;39.00;25.00
50827;PMS7003;36804;40.218;116.442;2023-05-10T23:42:33;65.50;40.25;26.00
50827;PMS7003;36804;40.218;116.442;2023-05-10T23:47:38;64.25;42.75;26.00
50827;PMS7003;36804;40.218;116.442;2023-05-10T23:52:43;66.75;40.00;26.25
50827;PMS7003;36804;40.218;116.442;2023-05-10T23:57:47;68.25;41.75;25.75
